sensor_id;sensor_type;location;lat;lon;timestamp;P1;durP1;ratioP1;P2;durP2;ratioP2
22826;SDS011;11580;52.562;13.418;2023-04-03T00:00:55;3.83;;;1.90;;
22826;SDS011;11580;52.562;13.418;2023-04-03T00:03:23;1.80;;;1.60;;
22826;SDS011;11580;52.562;13.418;2023-04-03T00:05:51;4.93;;;1.80;;
22826;SDS011;11580;52.562;13.418;2023-04-03T00:08:18;3.73;;;1.93;;
22826;SDS011;11580;52.562;13.418;2023-04-03T00:10:45;2.30;;;1.90;;
22826;SDS011;11580;52.562;13.418;2023-04-03T00:13:13;1.97;;;1.63;;
22826;SDS011;11580;52.562;13.418;2023-04-03T00:15:41;5.03;;;2.00;;
22826;SDS011;11580;52.562;13.418;2023-04-03T00:18:08;3.20;;;1.70;;
22826;SDS011;11580;52.562;13.418;2023-04-03T00:20:37;2.17;;;1.60;;
22826;SDS011;11580;52.562;13.418;2023-04-03T00:23:04;2.30;;;1.30;;
22826;SDS011;11580;52.562;13.418;2023-04-03T00:25:31;3.87;;;1.50;;
22826;SDS011;11580;52.562;13.418;2023-04-03T00:27:58;5.00;;;1.97;;
22826;SDS011;11580;52.562;13.418;2023-04-03T00:30:26;3.23;;;1.93;;
22826;SDS011;11580;52.562;13.418;2023-04-03T00:32:53;3.30;;;1.87;;
22826;SDS011;11580;52.562;13.418;2023-04-03T00:35:21;2.77;;;1.50;;
22826;SDS011;11580;52.562;13.418;2023-04-03T00:37:52;4.33;;;2.10;;
22826;SDS011;11580;52.562;13.418;2023-04-03T00:40:21;2.57;;;1.67;;
22826;SDS011;11580;52.562;13.418;2023-04-03T00:42:54;2.03;;;1.87;;
22826;SDS011;11580;52.562;13.418;2023-04-03T00:45:26;2.67;;;1.60;;
22826;SDS011;11580;52.562;13.418;2023-04-03T00:48:02;2.23;;;1.80;;
22826;SDS011;11580;52.562;13.418;2023-04-03T00:50:34;2.00;;;1.73;;
22826;SDS011;11580;52.562;13.418;2023-04-03T00:53:06;2.60;;;1.73;;
22826;SDS011;11580;52.562;13.418;2023-04-03T00:55:38;3.30;;;1.50;;
22826;SDS011;11580;52.562;13.418;2023-04-03T00:58:07;2.40;;;1.43;;
22826;SDS011;11580;52.562;13.418;2023-04-03T01:00:36;2.17;;;1.60;;
22826;SDS011;11580;52.562;13.418;2023-04-03T01:03:08;3.20;;;1.93;;
22826;SDS011;11580;52.562;13.418;2023-04-03T01:05:37;3.50;;;1.80;;
22826;SDS011;11580;52.562;13.418;2023-04-03T01:08:07;4.40;;;2.03;;
22826;SDS011;11580;52.562;13.418;2023-04-03T01:10:35;3.43;;;1.87;;
22826;SDS011;11580;52.562;13.418;2023-04-03T01:13:02;2.00;;;1.80;;
22826;SDS011;11580;52.562;13.418;2023-04-03T01:15:49;4.80;;;2.17;;
22826;SDS011;11580;52.562;13.418;2023-04-03T01:18:16;4.47;;;1.93;;
22826;SDS011;11580;52.562;13.418;2023-04-03T01:24:18;2.40;;;2.07;;
22826;SDS011;11580;52.562;13.418;2023-04-03T01:27:00;2.13;;;1.90;;
22826;SDS011;11580;52.562;13.418;2023-04-03T01:29:31;3.10;;;1.87;;
22826;SDS011;11580;52.562;13.418;2023-04-03T01:32:00;4.43;;;3.20;;
22826;SDS011;11580;52.562;13.418;2023-04-03T01:34:29;2.47;;;1.90;;
22826;SDS011;11580;52.562;13.418;2023-04-03T01:36:58;2.80;;;1.90;;
22826;SDS011;11580;52.562;13.418;2023-04-03T01:39:25;5.10;;;1.97;;
22826;SDS011;11580;52.562;13.418;2023-04-03T01:41:52;2.47;;;2.03;;
22826;SDS011;11580;52.562;13.418;2023-04-03T01:44:26;3.57;;;2.10;;
22826;SDS011;11580;52.562;13.418;2023-04-03T01:46:54;4.10;;;2.03;;
22826;SDS011;11580;52.562;13.418;2023-04-03T01:49:24;6.17;;;2.20;;
22826;SDS011;11580;52.562;13.418;2023-04-03T01:51:51;2.70;;;1.77;;
22826;SDS011;11580;52.562;13.418;2023-04-03T01:54:19;1.93;;;1.73;;
22826;SDS011;11580;52.562;13.418;2023-04-03T01:56:46;2.50;;;1.67;;
22826;SDS011;11580;52.562;13.418;2023-04-03T01:59:13;5.97;;;1.77;;
22826;SDS011;11580;52.562;13.418;2023-04-03T02:01:43;3.47;;;2.20;;
22826;SDS011;11580;52.562;13.418;2023-04-03T02:04:12;2.40;;;1.40;;
22826;SDS011;11580;52.562;13.418;2023-04-03T02:06:41;3.40;;;1.70;;
22826;SDS011;11580;52.562;13.418;2023-04-03T02:09:08;5.17;;;1.90;;
22826;SDS011;11580;52.562;13.418;2023-04-03T02:11:35;1.93;;;1.63;;
22826;SDS011;11580;52.562;13.418;2023-04-03T02:14:03;2.70;;;1.70;;
22826;SDS011;11580;52.562;13.418;2023-04-03T02:16:30;2.90;;;1.87;;
22826;SDS011;11580;52.562;13.418;2023-04-03T02:18:57;2.90;;;1.57;;
22826;SDS011;11580;52.562;13.418;2023-04-03T02:21:25;3.70;;;1.70;;
22826;SDS011;11580;52.562;13.418;2023-04-03T02:23:54;2.63;;;1.63;;
22826;SDS011;11580;52.562;13.418;2023-04-03T02:26:22;2.80;;;1.70;;
22826;SDS011;11580;52.562;13.418;2023-04-03T02:28:50;1.80;;;1.70;;
22826;SDS011;11580;52.562;13.418;2023-04-03T02:31:17;2.80;;;1.43;;
22826;SDS011;11580;52.562;13.418;2023-04-03T02:33:45;1.80;;;1.30;;
22826;SDS011;11580;52.562;13.418;2023-04-03T02:36:14;3.70;;;1.87;;
22826;SDS011;11580;52.562;13.418;2023-04-03T02:38:45;2.50;;;1.83;;
22826;SDS011;11580;52.562;13.418;2023-04-03T02:41:14;2.50;;;1.60;;
22826;SDS011;11580;52.562;13.418;2023-04-03T02:43:42;5.77;;;2.10;;
22826;SDS011;11580;52.562;13.418;2023-04-03T02:46:09;3.33;;;1.80;;
22826;SDS011;11580;52.562;13.418;2023-04-03T02:48:36;4.67;;;2.87;;
22826;SDS011;11580;52.562;13.418;2023-04-03T02:51:04;3.97;;;2.30;;
22826;SDS011;11580;52.562;13.418;2023-04-03T02:53:31;1.90;;;1.60;;
22826;SDS011;11580;52.562;13.418;2023-04-03T02:56:05;2.80;;;1.90;;
22826;SDS011;11580;52.562;13.418;2023-04-03T02:58:33;3.00;;;2.10;;
22826;SDS011;11580;52.562;13.418;2023-04-03T03:01:02;2.47;;;2.10;;
22826;SDS011;11580;52.562;13.418;2023-04-03T03:03:29;4.13;;;2.00;;
22826;SDS011;11580;52.562;13.418;2023-04-03T03:06:00;2.13;;;1.63;;
22826;SDS011;11580;52.562;13.418;2023-04-03T03:08:29;8.23;;;2.00;;
22826;SDS011;11580;52.562;13.418;2023-04-03T03:10:56;2.87;;;1.43;;
22826;SDS011;11580;52.562;13.418;2023-04-03T03:13:24;2.50;;;1.87;;
22826;SDS011;11580;52.562;13.418;2023-04-03T03:15:52;2.40;;;1.83;;
22826;SDS011;11580;52.562;13.418;2023-04-03T03:18:20;2.53;;;2.00;;
22826;SDS011;11580;52.562;13.418;2023-04-03T03:20:50;4.80;;;2.40;;
22826;SDS011;11580;52.562;13.418;2023-04-03T03:23:19;4.90;;;2.10;;
22826;SDS011;11580;52.562;13.418;2023-04-03T03:25:47;3.33;;;1.87;;
22826;SDS011;11580;52.562;13.418;2023-04-03T03:28:14;2.33;;;1.70;;
22826;SDS011;11580;52.562;13.418;2023-04-03T03:30:42;6.73;;;1.90;;
22826;SDS011;11580;52.562;13.418;2023-04-03T03:33:10;7.27;;;2.13;;
22826;SDS011;11580;52.562;13.418;2023-04-03T03:35:37;5.77;;;1.97;;
22826;SDS011;11580;52.562;13.418;2023-04-03T03:38:05;3.60;;;2.10;;
22826;SDS011;11580;52.562;13.418;2023-04-03T03:40:32;2.47;;;1.60;;
22826;SDS011;11580;52.562;13.418;2023-04-03T03:42:59;3.30;;;2.10;;
22826;SDS011;11580;52.562;13.418;2023-04-03T03:45:27;4.37;;;2.00;;
22826;SDS011;11580;52.562;13.418;2023-04-03T03:47:54;3.00;;;1.93;;
22826;SDS011;11580;52.562;13.418;2023-04-03T03:50:22;2.87;;;1.77;;
22826;SDS011;11580;52.562;13.418;2023-04-03T03:52:50;3.17;;;1.90;;
22826;SDS011;11580;52.562;13.418;2023-04-03T03:55:17;2.77;;;1.60;;
22826;SDS011;11580;52.562;13.418;2023-04-03T03:57:49;2.87;;;1.93;;
22826;SDS011;11580;52.562;13.418;2023-04-03T04:00:17;5.83;;;2.23;;
22826;SDS011;11580;52.562;13.418;2023-04-03T04:02:51;1.97;;;1.73;;
22826;SDS011;11580;52.562;13.418;2023-04-03T04:05:21;4.23;;;2.13;;
22826;SDS011;11580;52.562;13.418;2023-04-03T04:07:50;3.43;;;2.60;;
22826;SDS011;11580;52.562;13.418;2023-04-03T04:10:18;4.37;;;1.93;;
22826;SDS011;11580;52.562;13.418;2023-04-03T04:12:46;4.20;;;2.60;;
22826;SDS011;11580;52.562;13.418;2023-04-03T04:15:14;2.60;;;2.40;;
22826;SDS011;11580;52.562;13.418;2023-04-03T04:17:42;6.43;;;2.30;;
22826;SDS011;11580;52.562;13.418;2023-04-03T04:20:11;5.57;;;1.90;;
22826;SDS011;11580;52.562;13.418;2023-04-03T04:22:40;5.37;;;1.73;;
22826;SDS011;11580;52.562;13.418;2023-04-03T04:25:08;4.10;;;2.73;;
22826;SDS011;11580;52.562;13.418;2023-04-03T04:27:37;4.47;;;2.30;;
22826;SDS011;11580;52.562;13.418;2023-04-03T04:30:05;3.57;;;2.30;;
22826;SDS011;11580;52.562;13.418;2023-04-03T04:32:34;4.83;;;2.43;;
22826;SDS011;11580;52.562;13.418;2023-04-03T04:35:02;4.50;;;2.53;;
22826;SDS011;11580;52.562;13.418;2023-04-03T04:37:32;2.60;;;1.87;;
22826;SDS011;11580;52.562;13.418;2023-04-03T04:40:01;2.17;;;1.90;;
22826;SDS011;11580;52.562;13.418;2023-04-03T04:42:29;2.70;;;1.67;;
22826;SDS011;11580;52.562;13.418;2023-04-03T04:44:56;3.30;;;1.80;;
22826;SDS011;11580;52.562;13.418;2023-04-03T04:47:23;2.80;;;1.67;;
22826;SDS011;11580;52.562;13.418;2023-04-03T04:49:50;4.50;;;2.03;;
22826;SDS011;11580;52.562;13.418;2023-04-03T04:52:18;4.77;;;2.13;;
22826;SDS011;11580;52.562;13.418;2023-04-03T04:54:46;6.10;;;2.43;;
22826;SDS011;11580;52.562;13.418;2023-04-03T04:57:15;3.00;;;2.20;;
22826;SDS011;11580;52.562;13.418;2023-04-03T04:59:42;4.80;;;1.97;;
22826;SDS011;11580;52.562;13.418;2023-04-03T05:02:10;2.80;;;1.80;;
22826;SDS011;11580;52.562;13.418;2023-04-03T05:04:39;4.13;;;1.90;;
22826;SDS011;11580;52.562;13.418;2023-04-03T05:07:12;3.30;;;1.80;;
22826;SDS011;11580;52.562;13.418;2023-04-03T05:09:39;2.10;;;1.80;;
22826;SDS011;11580;52.562;13.418;2023-04-03T05:12:08;3.47;;;1.87;;
22826;SDS011;11580;52.562;13.418;2023-04-03T05:14:42;3.97;;;2.00;;
22826;SDS011;11580;52.562;13.418;2023-04-03T05:17:10;7.23;;;2.03;;
22826;SDS011;11580;52.562;13.418;2023-04-03T05:19:42;5.33;;;2.33;;
22826;SDS011;11580;52.562;13.418;2023-04-03T05:22:10;2.20;;;1.73;;
22826;SDS011;11580;52.562;13.418;2023-04-03T05:24:38;3.90;;;1.83;;
22826;SDS011;11580;52.562;13.418;2023-04-03T05:27:06;3.50;;;1.83;;
22826;SDS011;11580;52.562;13.418;2023-04-03T05:29:37;2.00;;;1.60;;
22826;SDS011;11580;52.562;13.418;2023-04-03T05:32:11;2.20;;;1.70;;
22826;SDS011;11580;52.562;13.418;2023-04-03T05:34:38;2.57;;;1.97;;
22826;SDS011;11580;52.562;13.418;2023-04-03T05:37:05;4.10;;;2.20;;
22826;SDS011;11580;52.562;13.418;2023-04-03T05:39:33;3.13;;;1.90;;
22826;SDS011;11580;52.562;13.418;2023-04-03T05:42:02;4.03;;;2.70;;
22826;SDS011;11580;52.562;13.418;2023-04-03T05:44:30;2.33;;;2.13;;
22826;SDS011;11580;52.562;13.418;2023-04-03T05:46:57;1.90;;;1.63;;
22826;SDS011;11580;52.562;13.418;2023-04-03T05:49:26;2.10;;;1.90;;
22826;SDS011;11580;52.562;13.418;2023-04-03T05:51:53;4.07;;;1.93;;
22826;SDS011;11580;52.562;13.418;2023-04-03T05:54:24;3.93;;;1.73;;
22826;SDS011;11580;52.562;13.418;2023-04-03T05:57:01;2.90;;;1.47;;
22826;SDS011;11580;52.562;13.418;2023-04-03T05:59:29;1.77;;;1.67;;
22826;SDS011;11580;52.562;13.418;2023-04-03T06:01:57;3.30;;;2.00;;
22826;SDS011;11580;52.562;13.418;2023-04-03T06:04:27;5.90;;;2.30;;
22826;SDS011;11580;52.562;13.418;2023-04-03T06:06:55;4.30;;;2.23;;
22826;SDS011;11580;52.562;13.418;2023-04-03T06:09:26;2.43;;;1.93;;
22826;SDS011;11580;52.562;13.418;2023-04-03T06:11:55;3.00;;;1.47;;
22826;SDS011;11580;52.562;13.418;2023-04-03T06:14:24;1.73;;;1.60;;
22826;SDS011;11580;52.562;13.418;2023-04-03T06:16:51;7.70;;;2.00;;
22826;SDS011;11580;52.562;13.418;2023-04-03T06:19:19;6.33;;;2.20;;
22826;SDS011;11580;52.562;13.418;2023-04-03T06:21:52;2.70;;;1.50;;
22826;SDS011;11580;52.562;13.418;2023-04-03T06:24:19;4.30;;;2.03;;
22826;SDS011;11580;52.562;13.418;2023-04-03T06:26:49;2.20;;;1.70;;
22826;SDS011;11580;52.562;13.418;2023-04-03T06:29:17;5.13;;;2.00;;
22826;SDS011;11580;52.562;13.418;2023-04-03T06:31:45;5.20;;;2.13;;
22826;SDS011;11580;52.562;13.418;2023-04-03T06:34:13;2.27;;;1.90;;
22826;SDS011;11580;52.562;13.418;2023-04-03T06:36:40;4.87;;;1.87;;
22826;SDS011;11580;52.562;13.418;2023-04-03T06:39:09;3.27;;;1.80;;
22826;SDS011;11580;52.562;13.418;2023-04-03T06:41:41;1.73;;;1.63;;
22826;SDS011;11580;52.562;13.418;2023-04-03T06:44:09;2.00;;;1.60;;
22826;SDS011;11580;52.562;13.418;2023-04-03T06:46:38;2.60;;;1.93;;
22826;SDS011;11580;52.562;13.418;2023-04-03T06:49:05;3.93;;;1.80;;
22826;SDS011;11580;52.562;13.418;2023-04-03T06:51:33;2.33;;;1.73;;
22826;SDS011;11580;52.562;13.418;2023-04-03T06:54:03;1.90;;;1.40;;
22826;SDS011;11580;52.562;13.418;2023-04-03T06:56:34;2.03;;;1.63;;
22826;SDS011;11580;52.562;13.418;2023-04-03T06:59:02;3.30;;;1.97;;
22826;SDS011;11580;52.562;13.418;2023-04-03T07:01:30;2.90;;;1.70;;
22826;SDS011;11580;52.562;13.418;2023-04-03T07:03:57;2.07;;;1.63;;
22826;SDS011;11580;52.562;13.418;2023-04-03T07:06:25;3.43;;;1.60;;
22826;SDS011;11580;52.562;13.418;2023-04-03T07:08:52;4.60;;;1.80;;
22826;SDS011;11580;52.562;13.418;2023-04-03T07:11:20;2.20;;;1.40;;
22826;SDS011;11580;52.562;13.418;2023-04-03T07:13:49;3.63;;;2.30;;
22826;SDS011;11580;52.562;13.418;2023-04-03T07:16:16;2.20;;;1.40;;
22826;SDS011;11580;52.562;13.418;2023-04-03T07:18:44;2.33;;;1.50;;
22826;SDS011;11580;52.562;13.418;2023-04-03T07:21:12;1.97;;;1.77;;
22826;SDS011;11580;52.562;13.418;2023-04-03T07:23:39;1.50;;;1.20;;
22826;SDS011;11580;52.562;13.418;2023-04-03T07:26:07;3.90;;;2.10;;
22826;SDS011;11580;52.562;13.418;2023-04-03T07:28:34;2.07;;;1.30;;
22826;SDS011;11580;52.562;13.418;2023-04-03T07:31:04;3.03;;;1.50;;
22826;SDS011;11580;52.562;13.418;2023-04-03T07:33:33;1.70;;;1.60;;
22826;SDS011;11580;52.562;13.418;2023-04-03T07:36:02;2.30;;;1.73;;
22826;SDS011;11580;52.562;13.418;2023-04-03T07:38:32;2.50;;;1.60;;
22826;SDS011;11580;52.562;13.418;2023-04-03T07:40:59;1.83;;;1.73;;
22826;SDS011;11580;52.562;13.418;2023-04-03T07:43:27;2.10;;;1.90;;
22826;SDS011;11580;52.562;13.418;2023-04-03T07:45:54;2.70;;;2.20;;
22826;SDS011;11580;52.562;13.418;2023-04-03T07:48:23;2.63;;;1.80;;
22826;SDS011;11580;52.562;13.418;2023-04-03T07:50:52;1.80;;;1.70;;
22826;SDS011;11580;52.562;13.418;2023-04-03T07:53:19;2.00;;;1.80;;
22826;SDS011;11580;52.562;13.418;2023-04-03T07:55:46;2.83;;;2.07;;
22826;SDS011;11580;52.562;13.418;2023-04-03T07:58:17;1.70;;;1.20;;
22826;SDS011;11580;52.562;13.418;2023-04-03T08:00:45;2.00;;;1.57;;
22826;SDS011;11580;52.562;13.418;2023-04-03T08:03:14;3.20;;;2.83;;
22826;SDS011;11580;52.562;13.418;2023-04-03T08:05:44;2.10;;;1.67;;
22826;SDS011;11580;52.562;13.418;2023-04-03T08:08:14;1.73;;;1.63;;
22826;SDS011;11580;52.562;13.418;2023-04-03T08:10:43;2.40;;;1.40;;
22826;SDS011;11580;52.562;13.418;2023-04-03T08:13:14;1.93;;;1.30;;
22826;SDS011;11580;52.562;13.418;2023-04-03T08:15:41;1.60;;;1.50;;
22826;SDS011;11580;52.562;13.418;2023-04-03T08:18:08;1.73;;;1.40;;
22826;SDS011;11580;52.562;13.418;2023-04-03T08:20:37;1.90;;;1.30;;
22826;SDS011;11580;52.562;13.418;2023-04-03T08:23:06;2.23;;;1.53;;
22826;SDS011;11580;52.562;13.418;2023-04-03T08:25:37;3.20;;;1.40;;
22826;SDS011;11580;52.562;13.418;2023-04-03T08:28:05;2.57;;;1.37;;
22826;SDS011;11580;52.562;13.418;2023-04-03T08:30:32;2.47;;;1.40;;
22826;SDS011;11580;52.562;13.418;2023-04-03T08:33:01;2.50;;;1.60;;
22826;SDS011;11580;52.562;13.418;2023-04-03T08:35:29;3.03;;;1.80;;
22826;SDS011;11580;52.562;13.418;2023-04-03T08:37:56;3.67;;;1.60;;
22826;SDS011;11580;52.562;13.418;2023-04-03T08:40:25;2.40;;;1.57;;
22826;SDS011;11580;52.562;13.418;2023-04-03T08:42:54;1.50;;;1.40;;
22826;SDS011;11580;52.562;13.418;2023-04-03T08:45:38;2.60;;;1.30;;
22826;SDS011;11580;52.562;13.418;2023-04-03T08:48:13;2.17;;;1.57;;
22826;SDS011;11580;52.562;13.418;2023-04-03T08:50:47;1.83;;;1.70;;
22826;SDS011;11580;52.562;13.418;2023-04-03T08:53:20;1.90;;;1.60;;
22826;SDS011;11580;52.562;13.418;2023-04-03T08:55:55;1.53;;;1.43;;
22826;SDS011;11580;52.562;13.418;2023-04-03T08:58:23;3.57;;;1.30;;
22826;SDS011;11580;52.562;13.418;2023-04-03T09:00:55;2.30;;;2.10;;
22826;SDS011;11580;52.562;13.418;2023-04-03T09:03:28;3.43;;;1.50;;
22826;SDS011;11580;52.562;13.418;2023-04-03T09:06:00;2.80;;;1.43;;
22826;SDS011;11580;52.562;13.418;2023-04-03T09:08:32;2.80;;;1.60;;
22826;SDS011;11580;52.562;13.418;2023-04-03T09:11:12;1.33;;;1.23;;
22826;SDS011;11580;52.562;13.418;2023-04-03T09:13:49;2.43;;;1.40;;
22826;SDS011;11580;52.562;13.418;2023-04-03T09:16:31;1.80;;;1.60;;
22826;SDS011;11580;52.562;13.418;2023-04-03T09:19:13;2.23;;;1.27;;
22826;SDS011;11580;52.562;13.418;2023-04-03T09:21:48;2.27;;;1.50;;
22826;SDS011;11580;52.562;13.418;2023-04-03T09:24:15;1.10;;;0.90;;
22826;SDS011;11580;52.562;13.418;2023-04-03T09:26:46;2.27;;;1.53;;
22826;SDS011;11580;52.562;13.418;2023-04-03T09:29:24;2.10;;;1.40;;
22826;SDS011;11580;52.562;13.418;2023-04-03T09:31:52;1.47;;;1.37;;
22826;SDS011;11580;52.562;13.418;2023-04-03T09:34:26;1.13;;;1.13;;
22826;SDS011;11580;52.562;13.418;2023-04-03T09:36:57;2.97;;;2.37;;
22826;SDS011;11580;52.562;13.418;2023-04-03T09:39:31;2.20;;;1.60;;
22826;SDS011;11580;52.562;13.418;2023-04-03T09:42:18;2.40;;;1.50;;
22826;SDS011;11580;52.562;13.418;2023-04-03T09:44:53;3.40;;;1.97;;
22826;SDS011;11580;52.562;13.418;2023-04-03T09:47:23;2.80;;;1.60;;
22826;SDS011;11580;52.562;13.418;2023-04-03T09:50:08;3.17;;;1.53;;
22826;SDS011;11580;52.562;13.418;2023-04-03T09:52:47;2.20;;;1.40;;
22826;SDS011;11580;52.562;13.418;2023-04-03T09:55:18;1.63;;;1.17;;
22826;SDS011;11580;52.562;13.418;2023-04-03T09:57:54;1.37;;;1.27;;
22826;SDS011;11580;52.562;13.418;2023-04-03T10:00:25;1.93;;;1.10;;
22826;SDS011;11580;52.562;13.418;2023-04-03T10:02:57;1.33;;;1.20;;
22826;SDS011;11580;52.562;13.418;2023-04-03T10:05:27;1.40;;;1.30;;
22826;SDS011;11580;52.562;13.418;2023-04-03T10:08:08;1.00;;;0.93;;
22826;SDS011;11580;52.562;13.418;2023-04-03T10:10:47;1.07;;;1.07;;
22826;SDS011;11580;52.562;13.418;2023-04-03T10:13:32;1.93;;;1.23;;
22826;SDS011;11580;52.562;13.418;2023-04-03T10:16:01;2.10;;;1.40;;
22826;SDS011;11580;52.562;13.418;2023-04-03T10:18:37;2.53;;;1.30;;
22826;SDS011;11580;52.562;13.418;2023-04-03T10:21:13;1.30;;;1.20;;
22826;SDS011;11580;52.562;13.418;2023-04-03T10:24:02;1.30;;;1.00;;
22826;SDS011;11580;52.562;13.418;2023-04-03T10:26:39;2.10;;;1.20;;
22826;SDS011;11580;52.562;13.418;2023-04-03T10:29:27;1.97;;;1.13;;
22826;SDS011;11580;52.562;13.418;2023-04-03T10:35:18;1.60;;;1.50;;
22826;SDS011;11580;52.562;13.418;2023-04-03T10:38:01;1.67;;;1.40;;
22826;SDS011;11580;52.562;13.418;2023-04-03T10:40:42;1.80;;;1.30;;
22826;SDS011;11580;52.562;13.418;2023-04-03T10:43:21;1.77;;;1.30;;
22826;SDS011;11580;52.562;13.418;2023-04-03T10:46:02;1.47;;;1.20;;
22826;SDS011;11580;52.562;13.418;2023-04-03T10:51:40;1.70;;;1.10;;
22826;SDS011;11580;52.562;13.418;2023-04-03T10:54:12;1.40;;;1.30;;
22826;SDS011;11580;52.562;13.418;2023-04-03T10:56:47;1.37;;;1.27;;
22826;SDS011;11580;52.562;13.418;2023-04-03T10:59:22;1.30;;;1.20;;
22826;SDS011;11580;52.562;13.418;2023-04-03T11:01:59;1.47;;;1.20;;
22826;SDS011;11580;52.562;13.418;2023-04-03T11:04:34;1.60;;;1.50;;
22826;SDS011;11580;52.562;13.418;2023-04-03T11:07:08;2.07;;;1.60;;
22826;SDS011;11580;52.562;13.418;2023-04-03T11:09:42;3.30;;;1.30;;
22826;SDS011;11580;52.562;13.418;2023-04-03T11:12:15;1.90;;;1.20;;
22826;SDS011;11580;52.562;13.418;2023-04-03T11:14:51;1.20;;;1.10;;
22826;SDS011;11580;52.562;13.418;2023-04-03T11:17:26;1.77;;;1.10;;
22826;SDS011;11580;52.562;13.418;2023-04-03T11:20:02;0.97;;;0.90;;
22826;SDS011;11580;52.562;13.418;2023-04-03T11:22:42;3.33;;;0.93;;
22826;SDS011;11580;52.562;13.418;2023-04-03T11:25:14;1.73;;;1.20;;
22826;SDS011;11580;52.562;13.418;2023-04-03T11:27:48;1.30;;;1.20;;
22826;SDS011;11580;52.562;13.418;2023-04-03T11:30:23;3.40;;;1.70;;
22826;SDS011;11580;52.562;13.418;2023-04-03T11:33:02;1.70;;;1.13;;
22826;SDS011;11580;52.562;13.418;2023-04-03T11:35:57;1.40;;;1.13;;
22826;SDS011;11580;52.562;13.418;2023-04-03T11:38:30;1.10;;;1.00;;
22826;SDS011;11580;52.562;13.418;2023-04-03T11:41:04;1.53;;;1.17;;
22826;SDS011;11580;52.562;13.418;2023-04-03T11:43:39;1.97;;;1.30;;
22826;SDS011;11580;52.562;13.418;2023-04-03T11:46:21;2.30;;;1.37;;
22826;SDS011;11580;52.562;13.418;2023-04-03T11:48:51;2.30;;;1.43;;
22826;SDS011;11580;52.562;13.418;2023-04-03T11:57:28;1.10;;;1.00;;
22826;SDS011;11580;52.562;13.418;2023-04-03T12:12:55;2.73;;;1.67;;
22826;SDS011;11580;52.562;13.418;2023-04-03T12:15:26;1.50;;;1.40;;
22826;SDS011;11580;52.562;13.418;2023-04-03T12:21:24;1.53;;;1.43;;
22826;SDS011;11580;52.562;13.418;2023-04-03T12:24:41;1.20;;;1.10;;
22826;SDS011;11580;52.562;13.418;2023-04-03T12:27:23;2.17;;;1.50;;
22826;SDS011;11580;52.562;13.418;2023-04-03T12:29:59;1.53;;;1.00;;
22826;SDS011;11580;52.562;13.418;2023-04-03T12:32:48;1.77;;;1.20;;
22826;SDS011;11580;52.562;13.418;2023-04-03T12:35:31;2.00;;;1.43;;
22826;SDS011;11580;52.562;13.418;2023-04-03T12:38:14;1.63;;;1.20;;
22826;SDS011;11580;52.562;13.418;2023-04-03T12:41:04;1.30;;;1.20;;
22826;SDS011;11580;52.562;13.418;2023-04-03T12:43:49;1.40;;;1.10;;
22826;SDS011;11580;52.562;13.418;2023-04-03T12:46:34;1.40;;;1.17;;
22826;SDS011;11580;52.562;13.418;2023-04-03T12:49:12;1.80;;;1.47;;
22826;SDS011;11580;52.562;13.418;2023-04-03T12:51:59;2.00;;;1.10;;
22826;SDS011;11580;52.562;13.418;2023-04-03T12:54:31;1.43;;;1.03;;
22826;SDS011;11580;52.562;13.418;2023-04-03T12:57:08;1.13;;;0.93;;
22826;SDS011;11580;52.562;13.418;2023-04-03T12:59:38;1.30;;;1.20;;
22826;SDS011;11580;52.562;13.418;2023-04-03T13:02:12;1.10;;;1.00;;
22826;SDS011;11580;52.562;13.418;2023-04-03T13:04:51;1.43;;;1.23;;
22826;SDS011;11580;52.562;13.418;2023-04-03T13:07:24;1.70;;;1.43;;
22826;SDS011;11580;52.562;13.418;2023-04-03T13:09:59;2.03;;;1.53;;
22826;SDS011;11580;52.562;13.418;2023-04-03T13:12:45;1.60;;;1.13;;
22826;SDS011;11580;52.562;13.418;2023-04-03T13:15:16;1.27;;;0.97;;
22826;SDS011;11580;52.562;13.418;2023-04-03T13:17:45;1.70;;;1.10;;
22826;SDS011;11580;52.562;13.418;2023-04-03T13:20:17;1.37;;;0.93;;
22826;SDS011;11580;52.562;13.418;2023-04-03T13:22:51;1.20;;;1.10;;
22826;SDS011;11580;52.562;13.418;2023-04-03T13:25:27;1.53;;;1.10;;
22826;SDS011;11580;52.562;13.418;2023-04-03T13:27:59;1.50;;;1.00;;
22826;SDS011;11580;52.562;13.418;2023-04-03T13:30:30;1.93;;;1.17;;
22826;SDS011;11580;52.562;13.418;2023-04-03T13:33:02;1.60;;;1.50;;
22826;SDS011;11580;52.562;13.418;2023-04-03T13:35:35;1.97;;;1.00;;
22826;SDS011;11580;52.562;13.418;2023-04-03T13:38:07;1.97;;;1.27;;
22826;SDS011;11580;52.562;13.418;2023-04-03T13:40:52;1.67;;;1.40;;
22826;SDS011;11580;52.562;13.418;2023-04-03T13:43:23;2.10;;;1.23;;
22826;SDS011;11580;52.562;13.418;2023-04-03T13:45:54;1.30;;;0.90;;
22826;SDS011;11580;52.562;13.418;2023-04-03T13:48:35;1.20;;;1.10;;
22826;SDS011;11580;52.562;13.418;2023-04-03T13:51:07;1.67;;;1.00;;
22826;SDS011;11580;52.562;13.418;2023-04-03T13:53:47;3.50;;;1.27;;
22826;SDS011;11580;52.562;13.418;2023-04-03T13:56:20;3.00;;;1.20;;
22826;SDS011;11580;52.562;13.418;2023-04-03T13:59:04;1.83;;;1.20;;
22826;SDS011;11580;52.562;13.418;2023-04-03T14:01:49;2.17;;;1.33;;
22826;SDS011;11580;52.562;13.418;2023-04-03T14:04:21;2.07;;;1.20;;
22826;SDS011;11580;52.562;13.418;2023-04-03T14:06:51;1.13;;;1.03;;
22826;SDS011;11580;52.562;13.418;2023-04-03T14:09:20;1.63;;;1.50;;
22826;SDS011;11580;52.562;13.418;2023-04-03T14:11:53;1.43;;;1.13;;
22826;SDS011;11580;52.562;13.418;2023-04-03T14:14:26;1.33;;;1.23;;
22826;SDS011;11580;52.562;13.418;2023-04-03T14:16:58;1.10;;;1.00;;
22826;SDS011;11580;52.562;13.418;2023-04-03T14:19:28;1.50;;;1.10;;
22826;SDS011;11580;52.562;13.418;2023-04-03T14:21:59;1.63;;;1.27;;
22826;SDS011;11580;52.562;13.418;2023-04-03T14:24:33;1.47;;;1.20;;
22826;SDS011;11580;52.562;13.418;2023-04-03T14:27:01;1.13;;;1.13;;
22826;SDS011;11580;52.562;13.418;2023-04-03T14:29:31;1.90;;;1.00;;
22826;SDS011;11580;52.562;13.418;2023-04-03T14:31:58;1.30;;;1.20;;
22826;SDS011;11580;52.562;13.418;2023-04-03T14:34:25;1.10;;;1.03;;
22826;SDS011;11580;52.562;13.418;2023-04-03T14:36:52;1.40;;;1.27;;
22826;SDS011;11580;52.562;13.418;2023-04-03T14:39:20;2.17;;;1.70;;
22826;SDS011;11580;52.562;13.418;2023-04-03T14:41:47;2.10;;;2.00;;
22826;SDS011;11580;52.562;13.418;2023-04-03T14:44:15;2.27;;;2.07;;
22826;SDS011;11580;52.562;13.418;2023-04-03T14:46:43;3.13;;;2.80;;
22826;SDS011;11580;52.562;13.418;2023-04-03T14:49:12;2.67;;;2.47;;
22826;SDS011;11580;52.562;13.418;2023-04-03T14:51:41;2.93;;;2.70;;
22826;SDS011;11580;52.562;13.418;2023-04-03T14:54:11;2.90;;;2.70;;
22826;SDS011;11580;52.562;13.418;2023-04-03T14:56:41;3.00;;;2.43;;
22826;SDS011;11580;52.562;13.418;2023-04-03T14:59:09;3.70;;;2.90;;
22826;SDS011;11580;52.562;13.418;2023-04-03T15:01:41;2.37;;;2.23;;
22826;SDS011;11580;52.562;13.418;2023-04-03T15:04:10;1.93;;;1.83;;
22826;SDS011;11580;52.562;13.418;2023-04-03T15:06:39;2.23;;;1.70;;
22826;SDS011;11580;52.562;13.418;2023-04-03T15:09:10;3.87;;;2.37;;
22826;SDS011;11580;52.562;13.418;2023-04-03T15:11:46;7.40;;;1.80;;
22826;SDS011;11580;52.562;13.418;2023-04-03T15:14:13;2.70;;;1.50;;
22826;SDS011;11580;52.562;13.418;2023-04-03T15:16:42;2.70;;;1.80;;
22826;SDS011;11580;52.562;13.418;2023-04-03T15:19:10;1.20;;;1.10;;
22826;SDS011;11580;52.562;13.418;2023-04-03T15:21:38;1.80;;;1.20;;
22826;SDS011;11580;52.562;13.418;2023-04-03T15:24:05;1.37;;;1.20;;
22826;SDS011;11580;52.562;13.418;2023-04-03T15:26:33;1.53;;;1.30;;
22826;SDS011;11580;52.562;13.418;2023-04-03T15:29:00;1.67;;;1.40;;